Main page
METAR-TAF:

METAR-TAF

Airports :

Kuwait International Airport

Kuwait City, Kuwait

latitude: 29-13N, longitude: 047-59E, elevation: 55 m

Current weather observation

The report was made 13 minutes ago, at 19:00 UTC
Wind 7 kt from the North/Northwest
Temperature 12°C
Humidity 38%
Pressure 1022 hPa
Visibility 10 km or more
no clouds below 1500 m and no cumulonimbus

METAR: OKBK 181900Z 34007KT CAVOK 12/M02 Q1022 NOSIG

Time: 22:13 (19:13 UTC)

Forecast

The report was made 2 hours and 28 minutes ago, at 16:45 UTC
Forecast valid from 18 at 18 UTC to 19 at 24 UTC
Wind 10 kt from the North
Visibility: 6000 m
Clear sky

TAF: OKBK 181645Z 1818/1924 35010KT 6000 SKC

Weather observations and forecasts of more than 4000 airports (METAR and TAF reports).

The available stations are represented by yellow and red dots on the map.

Hover mouse over dot to see the name of the station.

Then click to see weather observations and forecasts.

To change the map : click on the green buttons with a black cross to zoom in, on the green button with a dash to zoom out, or on the green arrows for adjacent maps.


METAR-TAF: